Dong Fang You 2 — BXEC — position and weather

sailwx.info

Track history (hours):
 
Tides and Currents Weather Stations Pressure Air Temp Water Temp Dewpoint Dewpoint Depression Visibility Wind Speed Wind Dir Waves Ship Positions

Dong Fang You 2

Last reported at 2016-Jun-26 07:09 UTC. Time now 2016-Jun-30 16:00 UTC.
Position N 21°04' E 110°35'.

Length 82 m; draft 3 m.

Type: Tanker. MMSI: 412464680.

Date/timePositionNaut miles runAvg speedWind from/ knotsBaromVisibWave heightAir tempDewpointWater temp
2016-Jun-26 07:09N 21°04' E 110°35'5 9.1
2016-Jun-26 06:33N 21°05' E 110°30'7 6.8
2016-Jun-26 05:30N 21°11' E 110°25'0 0.0
2016-Jun-26 02:32N 21°11' E 110°25'0 0.0
2016-Jun-26 01:08N 21°11' E 110°25'0 0.1
2016-Jun-26 00:29N 21°11' E 110°25'0 0.0
2016-Jun-25 22:29N 21°11' E 110°25'0 0.0
2016-Jun-25 21:32N 21°11' E 110°25'0 0.0
2016-Jun-25 20:32N 21°11' E 110°25'0 0.0
2016-Jun-25 19:32N 21°11' E 110°25'0 0.0
2016-Jun-25 18:32N 21°11' E 110°25'0 0.0
2016-Jun-25 17:26N 21°11' E 110°25'0 0.0
2016-Jun-25 16:32N 21°11' E 110°25'0 0.0
2016-Jun-25 11:11N 21°11' E 110°25'0 0.0
2016-Jun-25 10:28N 21°11' E 110°25'0 0.0
2016-Jun-25 09:22N 21°11' E 110°25'0 0.0
2016-Jun-25 08:28N 21°11' E 110°25'0 0.0
2016-Jun-25 07:28N 21°11' E 110°25'0 0.0
2016-Jun-25 06:31N 21°11' E 110°25'0 0.0
2016-Jun-25 05:22N 21°11' E 110°25'0 0.1
2016-Jun-25 04:22N 21°11' E 110°25'0 0.0
2016-Jun-25 03:31N 21°11' E 110°25'0 0.0
2016-Jun-25 02:31N 21°11' E 110°25'0 0.0
2016-Jun-25 01:22N 21°11' E 110°25'0 0.0
2016-Jun-25 00:31N 21°11' E 110°25'0 0.1
2016-Jun-24 23:28N 21°11' E 110°25'0 0.0
2016-Jun-24 22:19N 21°11' E 110°25'0 0.0
2016-Jun-24 21:31N 21°11' E 110°25'0 0.0
2016-Jun-24 20:31N 21°11' E 110°25'0 0.1
2016-Jun-24 19:31N 21°11' E 110°25'0 0.0
2016-Jun-24 18:28N 21°11' E 110°25'0 0.0
2016-Jun-24 17:31N 21°11' E 110°25'0 0.0
2016-Jun-24 16:28N 21°11' E 110°25'0 0.0
2016-Jun-24 15:31N 21°11' E 110°25'0 0.0
2016-Jun-24 14:19N 21°11' E 110°25'0 0.0
2016-Jun-24 13:10N 21°11' E 110°25'0 0.0
2016-Jun-24 10:29N 21°11' E 110°25'0 0.0
2016-Jun-24 09:20N 21°11' E 110°25'0 0.0
2016-Jun-24 08:23N 21°11' E 110°25'0 0.0
2016-Jun-24 07:32N 21°11' E 110°25'0 0.0
2016-Jun-24 04:32N 21°11' E 110°25'0 0.0
2016-Jun-24 03:32N 21°11' E 110°25'0 0.0
2016-Jun-24 02:20N 21°11' E 110°25'0 0.0
2016-Jun-24 01:29N 21°11' E 110°25'0 0.0
2016-Jun-23 23:11N 21°11' E 110°25'0 0.1
2016-Jun-23 22:20N 21°11' E 110°25'0 0.0
2016-Jun-23 21:23N 21°11' E 110°25'0 0.0
2016-Jun-23 19:14N 21°11' E 110°25'0 0.0
2016-Jun-23 18:29N 21°11' E 110°25'0 0.0
2016-Jun-23 17:32N 21°11' E 110°25'0 0.0
2016-Jun-23 16:29N 21°11' E 110°25'0 0.1
2016-Jun-23 15:29N 21°11' E 110°25'0 0.0
2016-Jun-23 14:29N 21°11' E 110°25'0 0.0
2016-Jun-23 13:05N 21°11' E 110°25'0 0.0
2016-Jun-23 10:29N 21°11' E 110°25'0 0.0
2016-Jun-23 04:12N 21°11' E 110°25'0 0.0
2016-Jun-23 03:27N 21°11' E 110°25'0 0.0
2016-Jun-23 02:33N 21°11' E 110°25'0 0.0
2016-Jun-23 01:15N 21°11' E 110°25'0 0.0
2016-Jun-23 00:33N 21°11' E 110°25'0 0.0
2016-Jun-22 23:30N 21°11' E 110°25'0 0.1
2016-Jun-22 22:33N 21°11' E 110°25'0 0.0
2016-Jun-22 21:12N 21°11' E 110°25'0 0.0
2016-Jun-22 20:18N 21°11' E 110°25'0 0.1
2016-Jun-22 19:27N 21°11' E 110°25'0 0.1
2016-Jun-22 18:33N 21°11' E 110°25'0 0.0
2016-Jun-22 17:27N 21°11' E 110°25'0 0.0
2016-Jun-22 16:27N 21°11' E 110°25'0 0.0
2016-Jun-22 15:33N 21°11' E 110°25'0 0.1
2016-Jun-22 14:33N 21°11' E 110°25'0 0.0
2016-Jun-22 12:30N 21°11' E 110°25'0 0.0
2016-Jun-22 11:30N 21°11' E 110°25'0 0.0
2016-Jun-22 09:33N 21°11' E 110°25'7 2.1
2016-Jun-22 06:24N 21°05' E 110°29'8 9.0
2016-Jun-22 05:29N 21°03' E 110°37'  
2016-Jun-17 18:14N 20°10' E 110°19'6 8.9
2016-Jun-17 17:33N 20°09' E 110°13'  
Track history (hours):
 
Tides and Currents Weather Stations Pressure Air Temp Water Temp Dewpoint Dewpoint Depression Visibility Wind Speed Wind Dir Waves Ship Positions

Dong Fang You 2

Last reported at 2016-Jun-26 07:09 UTC. Time now 2016-Jun-30 16:00 UTC.
Position N 21°04' E 110°35'.

Length 82 m; draft 3 m.

Type: Tanker. MMSI: 412464680.

Date/timePositionNaut miles runAvg speedWind from/ knotsBaromVisibWave heightAir tempDewpointWater temp
2016-Jun-26 07:09N 21°04' E 110°35'5 9.1
2016-Jun-26 06:33N 21°05' E 110°30'7 6.8
2016-Jun-26 05:30N 21°11' E 110°25'0 0.0
2016-Jun-26 02:32N 21°11' E 110°25'0 0.0
2016-Jun-26 01:08N 21°11' E 110°25'0 0.1
2016-Jun-26 00:29N 21°11' E 110°25'0 0.0
2016-Jun-25 22:29N 21°11' E 110°25'0 0.0
2016-Jun-25 21:32N 21°11' E 110°25'0 0.0
2016-Jun-25 20:32N 21°11' E 110°25'0 0.0
2016-Jun-25 19:32N 21°11' E 110°25'0 0.0
2016-Jun-25 18:32N 21°11' E 110°25'0 0.0
2016-Jun-25 17:26N 21°11' E 110°25'0 0.0
2016-Jun-25 16:32N 21°11' E 110°25'0 0.0
2016-Jun-25 11:11N 21°11' E 110°25'0 0.0
2016-Jun-25 10:28N 21°11' E 110°25'0 0.0
2016-Jun-25 09:22N 21°11' E 110°25'0 0.0
2016-Jun-25 08:28N 21°11' E 110°25'0 0.0
2016-Jun-25 07:28N 21°11' E 110°25'0 0.0
2016-Jun-25 06:31N 21°11' E 110°25'0 0.0
2016-Jun-25 05:22N 21°11' E 110°25'0 0.1
2016-Jun-25 04:22N 21°11' E 110°25'0 0.0
2016-Jun-25 03:31N 21°11' E 110°25'0 0.0
2016-Jun-25 02:31N 21°11' E 110°25'0 0.0
2016-Jun-25 01:22N 21°11' E 110°25'0 0.0
2016-Jun-25 00:31N 21°11' E 110°25'0 0.1
2016-Jun-24 23:28N 21°11' E 110°25'0 0.0
2016-Jun-24 22:19N 21°11' E 110°25'0 0.0
2016-Jun-24 21:31N 21°11' E 110°25'0 0.0
2016-Jun-24 20:31N 21°11' E 110°25'0 0.1
2016-Jun-24 19:31N 21°11' E 110°25'0 0.0
2016-Jun-24 18:28N 21°11' E 110°25'0 0.0
2016-Jun-24 17:31N 21°11' E 110°25'0 0.0
2016-Jun-24 16:28N 21°11' E 110°25'0 0.0
2016-Jun-24 15:31N 21°11' E 110°25'0 0.0
2016-Jun-24 14:19N 21°11' E 110°25'0 0.0
2016-Jun-24 13:10N 21°11' E 110°25'0 0.0
2016-Jun-24 10:29N 21°11' E 110°25'0 0.0
2016-Jun-24 09:20N 21°11' E 110°25'0 0.0
2016-Jun-24 08:23N 21°11' E 110°25'0 0.0
2016-Jun-24 07:32N 21°11' E 110°25'0 0.0
2016-Jun-24 04:32N 21°11' E 110°25'0 0.0
2016-Jun-24 03:32N 21°11' E 110°25'0 0.0
2016-Jun-24 02:20N 21°11' E 110°25'0 0.0
2016-Jun-24 01:29N 21°11' E 110°25'0 0.0
2016-Jun-23 23:11N 21°11' E 110°25'0 0.1
2016-Jun-23 22:20N 21°11' E 110°25'0 0.0
2016-Jun-23 21:23N 21°11' E 110°25'0 0.0
2016-Jun-23 19:14N 21°11' E 110°25'0 0.0
2016-Jun-23 18:29N 21°11' E 110°25'0 0.0
2016-Jun-23 17:32N 21°11' E 110°25'0 0.0
2016-Jun-23 16:29N 21°11' E 110°25'0 0.1
2016-Jun-23 15:29N 21°11' E 110°25'0 0.0
2016-Jun-23 14:29N 21°11' E 110°25'0 0.0
2016-Jun-23 13:05N 21°11' E 110°25'0 0.0
2016-Jun-23 10:29N 21°11' E 110°25'0 0.0
2016-Jun-23 04:12N 21°11' E 110°25'0 0.0
2016-Jun-23 03:27N 21°11' E 110°25'0 0.0
2016-Jun-23 02:33N 21°11' E 110°25'0 0.0
2016-Jun-23 01:15N 21°11' E 110°25'0 0.0
2016-Jun-23 00:33N 21°11' E 110°25'0 0.0
2016-Jun-22 23:30N 21°11' E 110°25'0 0.1
2016-Jun-22 22:33N 21°11' E 110°25'0 0.0
2016-Jun-22 21:12N 21°11' E 110°25'0 0.0
2016-Jun-22 20:18N 21°11' E 110°25'0 0.1
2016-Jun-22 19:27N 21°11' E 110°25'0 0.1
2016-Jun-22 18:33N 21°11' E 110°25'0 0.0
2016-Jun-22 17:27N 21°11' E 110°25'0 0.0
2016-Jun-22 16:27N 21°11' E 110°25'0 0.0
2016-Jun-22 15:33N 21°11' E 110°25'0 0.1
2016-Jun-22 14:33N 21°11' E 110°25'0 0.0
2016-Jun-22 12:30N 21°11' E 110°25'0 0.0
2016-Jun-22 11:30N 21°11' E 110°25'0 0.0
2016-Jun-22 09:33N 21°11' E 110°25'7 2.1
2016-Jun-22 06:24N 21°05' E 110°29'8 9.0
2016-Jun-22 05:29N 21°03' E 110°37'  
2016-Jun-17 18:14N 20°10' E 110°19'6 8.9
2016-Jun-17 17:33N 20°09' E 110°13'  

Dump ship's entire track history